createdAt,value
2023-02-27T00:03:18.029Z,98941.68
2023-02-27T00:08:40.193Z,98943.63
2023-02-27T00:14:02.093Z,98950.71
2023-02-27T00:19:24.019Z,98956.05
2023-02-27T00:24:45.846Z,98960.54
2023-02-27T00:30:10.084Z,98960.36
2023-02-27T00:35:31.914Z,98964.70
2023-02-27T00:40:55.423Z,98961.27
2023-02-27T00:46:17.535Z,98961.23
2023-02-27T00:51:40.122Z,98962.95
2023-02-27T00:57:01.936Z,98965.20
2023-02-27T01:02:23.784Z,98957.88
2023-02-27T01:07:45.799Z,98958.83
2023-02-27T01:13:11.159Z,98960.04
2023-02-27T01:18:33.191Z,98962.45
2023-02-27T01:23:55.179Z,98965.67
2023-02-27T01:29:17.030Z,98967.34
2023-02-27T01:34:38.866Z,98968.16
2023-02-27T01:40:00.862Z,98973.34
2023-02-27T01:45:41.651Z,98978.05
2023-02-27T01:51:14.221Z,98987.69
2023-02-27T01:56:37.178Z,98992.14
2023-02-27T02:01:59.360Z,98993.85
2023-02-27T02:07:22.253Z,98993.69
2023-02-27T02:12:45.256Z,98994.91
2023-02-27T02:18:26.370Z,99003.29
2023-02-27T02:23:54.621Z,99005.20
2023-02-27T02:29:39.732Z,99015.25
2023-02-27T02:35:26.871Z,99023.27
2023-02-27T02:41:10.356Z,99023.51
2023-02-27T02:46:57.180Z,99028.17
2023-02-27T02:52:19.105Z,99035.09
2023-02-27T02:57:46.328Z,99043.67
2023-02-27T03:03:17.513Z,99047.39
2023-02-27T03:08:48.801Z,99046.75
2023-02-27T03:14:19.250Z,99044.67
2023-02-27T03:19:55.187Z,99038.49
2023-02-27T03:25:17.441Z,99045.41
2023-02-27T03:31:10.009Z,99043.02
2023-02-27T03:36:37.823Z,99041.17
2023-02-27T03:42:12.581Z,99036.50
2023-02-27T03:47:49.176Z,99037.49
2023-02-27T03:53:26.159Z,99046.92
2023-02-27T03:58:48.088Z,99050.67
2023-02-27T04:04:14.036Z,99056.14
2023-02-27T04:10:08.774Z,99061.26
2023-02-27T04:16:02.181Z,99066.84
2023-02-27T04:21:50.436Z,99070.86
2023-02-27T04:27:50.401Z,99076.94
2023-02-27T04:33:37.220Z,99082.92
2023-02-27T04:39:05.200Z,99089.34
2023-02-27T04:44:29.309Z,99090.77
2023-02-27T04:50:02.214Z,99095.34
2023-02-27T04:55:28.531Z,99101.77
2023-02-27T05:00:57.377Z,99103.59
2023-02-27T05:06:19.614Z,99107.63
2023-02-27T05:11:49.662Z,99110.19
2023-02-27T05:17:11.598Z,99110.38
2023-02-27T05:22:46.977Z,99113.59
2023-02-27T05:28:35.201Z,99120.67
2023-02-27T05:34:08.510Z,99121.21
2023-02-27T05:39:32.606Z,99126.70
2023-02-27T05:44:59.251Z,99133.11
2023-02-27T05:50:25.472Z,99136.46
2023-02-27T05:55:50.477Z,99141.31
2023-02-27T06:01:12.936Z,99147.85
2023-02-27T06:06:35.587Z,99150.03
2023-02-27T06:11:58.128Z,99158.67
2023-02-27T06:17:19.972Z,99162.11
2023-02-27T06:22:42.182Z,99164.58
2023-02-27T06:28:04.614Z,99164.83
2023-02-27T06:33:26.739Z,99166.73
2023-02-27T06:38:49.171Z,99172.94
2023-02-27T06:44:10.995Z,99173.95
2023-02-27T06:49:33.241Z,99181.16
2023-02-27T06:54:54.982Z,99184.58
2023-02-27T07:00:17.948Z,99178.83
2023-02-27T07:05:42.027Z,99172.70
2023-02-27T07:11:04.456Z,99185.35
2023-02-27T07:16:26.683Z,99195.83
2023-02-27T07:21:51.368Z,99204.91
2023-02-27T07:27:13.464Z,99203.23
2023-02-27T07:32:35.407Z,99204.62
2023-02-27T07:37:57.450Z,99205.42
2023-02-27T07:43:19.648Z,99203.77
2023-02-27T07:48:41.506Z,99211.42
2023-02-27T07:54:03.508Z,99215.04
2023-02-27T07:59:25.240Z,99219.55
2023-02-27T08:04:47.159Z,99228.69
2023-02-27T08:10:09.706Z,99229.17
2023-02-27T08:15:38.745Z,99229.98
2023-02-27T08:21:00.677Z,99240.78
2023-02-27T08:26:23.317Z,99241.66
2023-02-27T08:31:47.041Z,99253.30
2023-02-27T08:37:09.582Z,99260.09
2023-02-27T08:42:34.618Z,99268.89
2023-02-27T08:47:56.349Z,99274.98
2023-02-27T08:53:18.532Z,99279.96
2023-02-27T08:58:40.402Z,99285.70
2023-02-27T09:04:08.685Z,99293.46
2023-02-27T09:09:30.384Z,99288.86
2023-02-27T09:14:52.213Z,99290.66
2023-02-27T09:20:15.864Z,99297.98
2023-02-27T09:25:37.781Z,99296.61
2023-02-27T09:31:03.630Z,99299.23
2023-02-27T09:36:26.117Z,99299.48
2023-02-27T09:41:48.395Z,99298.23
2023-02-27T09:47:28.681Z,99295.44
2023-02-27T09:52:51.564Z,99299.02
2023-02-27T09:58:41.035Z,99300.17
2023-02-27T10:04:31.870Z,99300.92
2023-02-27T10:10:05.438Z,99301.08
2023-02-27T10:15:31.776Z,99304.63
2023-02-27T10:21:00.590Z,99304.73
2023-02-27T10:26:28.329Z,99298.98
2023-02-27T10:31:55.601Z,99302.60
2023-02-27T10:37:19.075Z,99306.92
2023-02-27T10:42:41.790Z,99311.96
2023-02-27T10:48:05.035Z,99310.73
2023-02-27T10:53:28.180Z,99305.05
2023-02-27T10:59:03.355Z,99300.15
2023-02-27T11:04:40.517Z,99311.93
2023-02-27T11:10:18.615Z,99313.60
2023-02-27T11:15:40.655Z,99313.61
2023-02-27T11:21:20.503Z,99310.08
2023-02-27T11:26:59.322Z,99310.59
2023-02-27T11:32:21.989Z,99316.41
2023-02-27T11:37:50.012Z,99316.75
2023-02-27T11:43:24.988Z,99319.73
2023-02-27T11:48:49.124Z,99316.84
2023-02-27T11:54:32.500Z,99312.05
2023-02-27T12:00:06.745Z,99306.41
2023-02-27T12:05:48.268Z,99309.71
2023-02-27T12:11:28.543Z,99321.59
2023-02-27T12:16:55.379Z,99319.84
2023-02-27T12:22:25.394Z,99327.45
2023-02-27T12:27:54.175Z,99328.91
2023-02-27T12:33:26.713Z,99333.81
2023-02-27T12:38:48.638Z,99332.12
2023-02-27T12:44:49.601Z,99334.66
2023-02-27T12:50:19.850Z,99335.04
2023-02-27T12:55:47.524Z,99335.35
2023-02-27T13:01:29.785Z,99331.00
2023-02-27T13:06:53.552Z,99332.33
2023-02-27T13:12:43.989Z,99337.41
2023-02-27T13:18:32.814Z,99339.55
2023-02-27T13:24:06.533Z,99338.47
2023-02-27T13:29:40.957Z,99344.35
2023-02-27T13:35:17.442Z,99345.23
2023-02-27T13:40:41.151Z,99346.58
2023-02-27T13:46:13.449Z,99341.42
2023-02-27T13:51:35.390Z,99347.52
2023-02-27T13:56:57.789Z,99347.79
2023-02-27T14:02:57.794Z,99352.45
2023-02-27T14:08:28.715Z,99349.30
2023-02-27T14:13:50.672Z,99356.77
2023-02-27T14:19:15.300Z,99362.35
2023-02-27T14:25:00.968Z,99367.93
2023-02-27T14:30:29.550Z,99373.33
2023-02-27T14:36:06.228Z,99380.39
2023-02-27T14:42:10.239Z,99381.60
2023-02-27T14:47:34.659Z,99388.70
2023-02-27T14:52:56.709Z,99393.66
2023-02-27T14:58:21.955Z,99396.78
2023-02-27T15:03:50.458Z,99402.53
2023-02-27T15:09:43.280Z,99406.14
2023-02-27T15:15:10.098Z,99412.80
2023-02-27T15:20:35.111Z,99414.90
2023-02-27T15:25:58.941Z,99422.21
2023-02-27T15:31:23.578Z,99424.61
2023-02-27T15:36:54.810Z,99431.15
2023-02-27T15:42:17.474Z,99436.63
2023-02-27T15:47:40.957Z,99435.98
2023-02-27T15:53:10.156Z,99442.48
2023-02-27T15:58:39.616Z,99447.60
2023-02-27T16:04:06.384Z,99457.66
2023-02-27T16:09:36.102Z,99458.48
2023-02-27T16:15:21.113Z,99466.09
2023-02-27T16:20:45.189Z,99471.40
2023-02-27T16:26:49.230Z,99477.95
2023-02-27T16:32:27.017Z,99480.80
2023-02-27T16:37:53.898Z,99485.56
2023-02-27T16:43:16.317Z,99486.52
2023-02-27T16:48:41.243Z,99488.14
2023-02-27T16:54:04.079Z,99500.05
2023-02-27T16:59:27.311Z,99512.20
2023-02-27T17:04:50.226Z,99511.98
2023-02-27T17:10:18.619Z,99515.32
2023-02-27T17:15:41.820Z,99522.90
2023-02-27T17:21:05.268Z,99528.47
2023-02-27T17:26:29.420Z,99527.97
2023-02-27T17:31:53.375Z,99535.10
2023-02-27T17:37:15.963Z,99532.34
2023-02-27T17:42:39.506Z,99535.20
2023-02-27T17:48:01.528Z,99541.95
2023-02-27T17:53:23.271Z,99549.83
2023-02-27T17:58:45.711Z,99555.09
2023-02-27T18:04:13.507Z,99560.23
2023-02-27T18:09:38.280Z,99557.68
2023-02-27T18:15:00.804Z,99562.82
2023-02-27T18:20:22.731Z,99571.59
2023-02-27T18:25:54.298Z,99579.52
2023-02-27T18:31:24.570Z,99584.99
2023-02-27T18:36:46.686Z,99590.02
2023-02-27T18:42:08.321Z,99597.45
2023-02-27T18:47:30.481Z,99598.63
2023-02-27T18:52:54.376Z,99600.78
2023-02-27T18:58:16.493Z,99603.56
2023-02-27T19:03:38.748Z,99602.67
2023-02-27T19:09:01.576Z,99613.00
2023-02-27T19:14:23.743Z,99618.88
2023-02-27T19:19:48.547Z,99620.10
2023-02-27T19:25:15.998Z,99625.29
2023-02-27T19:30:40.189Z,99625.67
2023-02-27T19:36:07.898Z,99625.19
2023-02-27T19:41:31.334Z,99630.63
2023-02-27T19:46:58.093Z,99630.55
2023-02-27T19:52:22.696Z,99638.52
2023-02-27T19:57:48.298Z,99647.23
2023-02-27T20:03:13.868Z,99652.89
2023-02-27T20:08:36.261Z,99652.57
2023-02-27T20:13:58.457Z,99656.39
2023-02-27T20:19:21.963Z,99661.71
2023-02-27T20:24:45.005Z,99661.73
2023-02-27T20:30:09.083Z,99661.94
2023-02-27T20:35:30.926Z,99664.73
2023-02-27T20:40:57.929Z,99668.95
2023-02-27T20:46:22.531Z,99674.82
2023-02-27T20:51:44.906Z,99678.84
2023-02-27T20:57:06.854Z,99680.67
2023-02-27T21:02:29.375Z,99678.58
2023-02-27T21:07:51.886Z,99674.33
2023-02-27T21:13:13.715Z,99678.36
2023-02-27T21:18:36.780Z,99682.03
2023-02-27T21:23:59.195Z,99677.23
2023-02-27T21:29:21.611Z,99674.70
2023-02-27T21:34:43.336Z,99679.15
2023-02-27T21:40:08.789Z,99673.59
2023-02-27T21:45:30.806Z,99679.02
2023-02-27T21:51:00.370Z,99688.02
2023-02-27T21:56:22.294Z,99685.90
2023-02-27T22:01:47.591Z,99684.98
2023-02-27T22:07:11.449Z,99685.34
2023-02-27T22:12:34.499Z,99689.40
2023-02-27T22:17:56.337Z,99686.98
2023-02-27T22:23:18.362Z,99688.35
2023-02-27T22:28:43.510Z,99685.31
2023-02-27T22:34:12.397Z,99685.45
2023-02-27T22:39:34.489Z,99694.57
2023-02-27T22:44:58.126Z,99697.08
2023-02-27T22:50:21.727Z,99699.80
2023-02-27T22:55:52.920Z,99700.73
2023-02-27T23:01:16.525Z,99697.90
2023-02-27T23:06:40.083Z,99689.36
2023-02-27T23:12:03.931Z,99696.39
2023-02-27T23:17:25.423Z,99702.21
2023-02-27T23:22:47.379Z,99703.10
2023-02-27T23:28:09.207Z,99708.39
2023-02-27T23:33:31.765Z,99709.69
2023-02-27T23:38:53.568Z,99708.12
2023-02-27T23:44:38.582Z,99712.56
2023-02-27T23:50:00.220Z,99710.54
2023-02-27T23:55:22.744Z,99712.23
